Main page
METAR-TAF:

METAR-TAF

Airports :

Hafar Al-Batin, Saudi Arabia

King Khalid Military City

latitude: 27-54N, longitude: 045-32E, elevation: 413 m

METAR: missing

Time: 12:47 (09:47 UTC)

Forecast

The report was made 5 hours and 47 minutes ago, at 04:00 UTC
Forecast valid from 22 at 06 UTC to 22 at 20 UTC
Wind 6 kt from the East/Northeast with gusts up to 16 kt
Visibility 10 km or more
no clouds below 1500 m and no cumulonimbus

TAF: OEKK 220400Z 2206/2220 06006G16KT CAVOK

Weather observations and forecasts of more than 4000 airports (METAR and TAF reports).

The available stations are represented by yellow and red dots on the map.

Hover mouse over dot to see the name of the station.

Then click to see weather observations and forecasts.

To change the map : click on the green buttons with a black cross to zoom in, on the green button with a dash to zoom out, or on the green arrows for adjacent maps.


METAR-TAF: